createdAt,value
2019-01-06T00:00:49.008Z,21.97
2019-01-06T00:03:31.095Z,25.35
2019-01-06T00:06:04.252Z,27.55
2019-01-06T00:08:37.221Z,24.87
2019-01-06T00:11:09.944Z,17.42
2019-01-06T00:13:42.421Z,20.17
2019-01-06T00:16:28.812Z,16.87
2019-01-06T00:19:15.584Z,18.50
2019-01-06T00:22:01.807Z,16.62
2019-01-06T00:24:32.088Z,15.40
2019-01-06T00:27:05.108Z,14.00
2019-01-06T00:29:40.888Z,13.98
2019-01-06T00:32:27.263Z,16.17
2019-01-06T00:35:00.200Z,10.28
2019-01-06T00:37:30.264Z,14.10
2019-01-06T00:40:06.032Z,10.48
2019-01-06T00:42:36.091Z,14.58
2019-01-06T00:45:15.156Z,13.75
2019-01-06T00:47:48.031Z,13.32
2019-01-06T00:50:21.267Z,12.03
2019-01-06T00:52:54.056Z,15.48
2019-01-06T00:55:24.120Z,13.70
2019-01-06T00:57:57.001Z,14.20
2019-01-06T01:00:36.131Z,14.30
2019-01-06T01:03:22.647Z,14.05
2019-01-06T01:06:09.216Z,12.80
2019-01-06T01:08:45.273Z,15.68
2019-01-06T01:11:18.344Z,15.78
2019-01-06T01:13:50.897Z,14.47
2019-01-06T01:16:36.219Z,12.73
2019-01-06T01:19:12.508Z,16.60
2019-01-06T01:21:45.250Z,14.50
2019-01-06T01:24:18.341Z,15.35
2019-01-06T01:27:06.583Z,12.37
2019-01-06T01:29:39.537Z,14.80
2019-01-06T01:32:15.145Z,14.45
2019-01-06T01:35:01.403Z,11.50
2019-01-06T01:37:34.399Z,14.05
2019-01-06T01:40:22.791Z,16.30
2019-01-06T01:42:55.540Z,15.00
2019-01-06T01:45:42.220Z,18.35
2019-01-06T01:48:12.524Z,18.45
2019-01-06T01:50:57.632Z,16.07
2019-01-06T01:53:46.139Z,15.58
2019-01-06T01:56:32.455Z,15.68
2019-01-06T01:59:18.834Z,13.25
2019-01-06T02:01:54.855Z,13.53
2019-01-06T02:04:27.624Z,19.37
2019-01-06T02:07:03.390Z,13.85
2019-01-06T02:09:49.638Z,15.48
2019-01-06T02:12:19.752Z,16.45
2019-01-06T02:15:01.820Z,13.35
2019-01-06T02:17:35.037Z,17.42
2019-01-06T02:20:21.484Z,15.32
2019-01-06T02:23:07.634Z,16.55
2019-01-06T02:25:40.845Z,19.25
2019-01-06T02:28:23.246Z,17.98
2019-01-06T02:31:09.928Z,15.55
2019-01-06T02:33:46.115Z,19.25
2019-01-06T02:36:19.200Z,19.50
2019-01-06T02:39:05.670Z,20.65
2019-01-06T02:41:44.709Z,21.48
2019-01-06T02:44:31.042Z,23.62
2019-01-06T02:47:03.871Z,20.90
2019-01-06T02:49:36.781Z,19.75
2019-01-06T02:52:18.978Z,16.52
2019-01-06T02:55:07.153Z,20.52
2019-01-06T02:57:46.388Z,22.25
2019-01-06T03:00:16.471Z,20.57
2019-01-06T03:02:46.524Z,19.07
2019-01-06T03:05:19.629Z,19.98
2019-01-06T03:08:06.337Z,21.50
2019-01-06T03:10:39.111Z,18.42
2019-01-06T03:13:09.204Z,20.68
2019-01-06T03:15:48.155Z,22.45
2019-01-06T03:18:20.877Z,24.25
2019-01-06T03:20:50.938Z,22.02
2019-01-06T03:23:37.117Z,19.87
2019-01-06T03:26:07.168Z,24.65
2019-01-06T03:28:49.454Z,20.30
2019-01-06T03:31:22.223Z,21.57
2019-01-06T03:34:07.257Z,23.35
2019-01-06T03:36:53.480Z,24.05
2019-01-06T03:39:23.634Z,23.67
2019-01-06T03:41:56.755Z,26.85
2019-01-06T03:44:29.785Z,26.55
2019-01-06T03:47:08.652Z,25.23
2019-01-06T03:49:54.893Z,19.98
2019-01-06T03:52:34.040Z,20.97
2019-01-06T03:55:22.394Z,20.17
2019-01-06T03:57:58.026Z,20.45
2019-01-06T04:00:42.969Z,28.30
2019-01-06T04:03:13.394Z,22.55
2019-01-06T04:05:46.203Z,25.30
2019-01-06T04:08:25.156Z,21.30
2019-01-06T04:11:15.326Z,23.98
2019-01-06T04:13:59.664Z,25.57
2019-01-06T04:16:35.595Z,19.50
2019-01-06T04:19:17.418Z,23.57
2019-01-06T04:21:53.140Z,23.75
2019-01-06T04:24:23.187Z,23.50
2019-01-06T04:27:09.515Z,21.80
2019-01-06T04:29:39.848Z,23.38
2019-01-06T04:32:19.128Z,21.12
2019-01-06T04:34:51.972Z,20.60
2019-01-06T04:37:33.877Z,23.45
2019-01-06T04:40:04.185Z,27.48
2019-01-06T04:42:43.250Z,26.37
2019-01-06T04:45:13.304Z,26.02
2019-01-06T04:48:00.054Z,28.62
2019-01-06T04:50:46.319Z,27.48
2019-01-06T04:53:33.081Z,21.40
2019-01-06T04:56:15.396Z,26.73
2019-01-06T04:58:48.354Z,29.25
2019-01-06T05:01:27.605Z,27.10
2019-01-06T05:04:06.666Z,27.50
2019-01-06T05:06:36.727Z,23.73
2019-01-06T05:09:08.536Z,27.00
2019-01-06T05:11:57.211Z,26.10
2019-01-06T05:14:27.605Z,24.43
2019-01-06T05:17:15.983Z,26.07
2019-01-06T05:19:55.324Z,23.18
2019-01-06T05:22:25.414Z,27.95
2019-01-06T05:24:55.483Z,23.02
2019-01-06T05:27:25.779Z,21.65
2019-01-06T05:29:55.835Z,21.10
2019-01-06T05:32:42.197Z,22.70
2019-01-06T05:35:12.274Z,24.15
2019-01-06T05:37:42.321Z,23.90
2019-01-06T05:40:12.381Z,21.17
2019-01-06T05:42:58.733Z,19.95
2019-01-06T05:45:28.820Z,22.93
2019-01-06T05:48:07.959Z,28.00
2019-01-06T05:50:43.759Z,20.43
2019-01-06T05:53:19.650Z,26.60
2019-01-06T05:56:05.941Z,24.37
2019-01-06T05:58:53.851Z,23.47
2019-01-06T06:01:26.864Z,26.25
2019-01-06T06:03:56.922Z,23.32
2019-01-06T06:06:26.972Z,26.10
2019-01-06T06:09:14.945Z,24.60
2019-01-06T06:11:48.268Z,26.05
2019-01-06T06:14:35.003Z,25.95
2019-01-06T06:17:21.388Z,26.65
2019-01-06T06:20:07.947Z,26.55
2019-01-06T06:22:53.243Z,23.12
2019-01-06T06:25:29.344Z,23.87
2019-01-06T06:28:15.933Z,20.57
2019-01-06T06:30:46.014Z,20.12
2019-01-06T06:33:18.939Z,17.20
2019-01-06T06:36:05.217Z,18.65
2019-01-06T06:38:47.549Z,18.20
2019-01-06T06:41:17.602Z,17.27
2019-01-06T06:43:53.460Z,15.20
2019-01-06T06:46:41.538Z,14.68
2019-01-06T06:49:26.667Z,19.25
2019-01-06T06:52:12.879Z,16.17
2019-01-06T06:54:42.942Z,11.53
2019-01-06T06:58:01.749Z,13.08
2019-01-06T07:00:43.087Z,13.58
2019-01-06T07:03:34.150Z,17.77
2019-01-06T07:06:05.463Z,15.28
2019-01-06T07:08:38.190Z,12.70
2019-01-06T07:11:17.266Z,14.55
2019-01-06T07:13:47.320Z,14.30
2019-01-06T07:16:57.228Z,15.98
2019-01-06T07:19:43.473Z,16.12
2019-01-06T07:22:17.032Z,18.90
2019-01-06T07:24:47.080Z,15.25
2019-01-06T07:27:19.842Z,17.87
2019-01-06T07:29:58.931Z,14.20
2019-01-06T07:32:28.984Z,16.23
2019-01-06T07:35:17.603Z,18.20
2019-01-06T07:38:05.977Z,16.80
2019-01-06T07:40:36.043Z,18.05
2019-01-06T07:43:15.167Z,22.02
2019-01-06T07:45:57.164Z,17.73
2019-01-06T07:48:30.217Z,18.55
2019-01-06T07:51:00.278Z,19.25
2019-01-06T07:53:30.367Z,14.55
2019-01-06T07:56:15.432Z,17.40
2019-01-06T07:59:01.977Z,14.65
2019-01-06T08:01:32.255Z,13.83
2019-01-06T08:04:14.296Z,13.15
2019-01-06T08:06:47.415Z,15.75
2019-01-06T08:09:23.639Z,18.30
2019-01-06T08:11:59.669Z,12.20
2019-01-06T08:14:49.757Z,17.07
2019-01-06T08:17:20.048Z,13.05
2019-01-06T08:19:58.688Z,11.80
2019-01-06T08:22:45.425Z,10.72
2019-01-06T08:25:21.631Z,12.10
2019-01-06T08:27:51.704Z,14.63
2019-01-06T08:30:27.729Z,12.90
2019-01-06T08:33:13.716Z,14.60
2019-01-06T08:36:00.254Z,13.10
2019-01-06T08:38:47.174Z,12.60
2019-01-06T08:41:26.510Z,16.05
2019-01-06T08:43:59.299Z,15.48
2019-01-06T08:46:47.659Z,13.45
2019-01-06T08:49:20.411Z,13.65
2019-01-06T08:51:50.471Z,11.80
2019-01-06T08:54:23.183Z,16.70
2019-01-06T08:57:05.279Z,16.85
2019-01-06T08:59:51.554Z,12.43
2019-01-06T09:02:33.571Z,13.38
2019-01-06T09:05:09.691Z,12.63
2019-01-06T09:07:45.943Z,12.65
2019-01-06T09:10:25.210Z,12.25
2019-01-06T09:12:58.028Z,13.38
2019-01-06T09:15:34.554Z,14.10
2019-01-06T09:18:21.060Z,14.30
2019-01-06T09:21:07.350Z,12.70
2019-01-06T09:23:46.581Z,10.20
2019-01-06T09:26:19.374Z,10.53
2019-01-06T09:28:58.227Z,10.30
2019-01-06T09:31:53.334Z,8.50
2019-01-06T09:34:23.632Z,12.40
2019-01-06T09:36:56.729Z,10.90
2019-01-06T09:39:26.771Z,11.43
2019-01-06T09:42:02.285Z,9.28
2019-01-06T09:44:49.043Z,9.13
2019-01-06T09:47:27.892Z,13.78
2019-01-06T09:50:06.736Z,12.50
2019-01-06T09:52:54.540Z,11.12
2019-01-06T09:55:33.624Z,10.70
2019-01-06T09:58:03.670Z,11.08
2019-01-06T10:00:36.564Z,10.32
2019-01-06T10:03:18.902Z,11.70
2019-01-06T10:06:00.781Z,9.43
2019-01-06T10:08:47.376Z,9.78
2019-01-06T10:11:29.742Z,9.78
2019-01-06T10:14:02.738Z,11.12
2019-01-06T10:16:42.097Z,9.93
2019-01-06T10:19:21.192Z,11.00
2019-01-06T10:21:51.525Z,8.68
2019-01-06T10:24:24.607Z,9.63
2019-01-06T10:27:06.460Z,9.93
2019-01-06T10:29:36.867Z,8.75
2019-01-06T10:32:15.776Z,7.97
2019-01-06T10:34:48.668Z,8.63
2019-01-06T10:37:30.757Z,10.03
2019-01-06T10:40:03.912Z,12.53
2019-01-06T10:42:36.697Z,11.90
2019-01-06T10:45:24.293Z,9.98
2019-01-06T10:48:09.528Z,10.72
2019-01-06T10:50:57.733Z,10.90
2019-01-06T10:53:30.453Z,10.48
2019-01-06T10:56:00.520Z,10.93
2019-01-06T10:58:30.571Z,13.83
2019-01-06T11:01:03.643Z,11.88
2019-01-06T11:03:39.953Z,11.40
2019-01-06T11:06:26.431Z,13.53
2019-01-06T11:09:13.107Z,10.68
2019-01-06T11:11:49.434Z,12.37
2019-01-06T11:14:19.479Z,12.95
2019-01-06T11:16:55.752Z,11.80
2019-01-06T11:19:42.078Z,10.35
2019-01-06T11:22:12.206Z,9.38
2019-01-06T11:25:00.306Z,10.63
2019-01-06T11:27:46.830Z,7.97
2019-01-06T11:30:33.563Z,8.95
2019-01-06T11:33:03.642Z,9.30
2019-01-06T11:35:36.868Z,10.20
2019-01-06T11:38:23.443Z,9.35
2019-01-06T11:40:53.487Z,11.63
2019-01-06T11:43:23.540Z,8.70
2019-01-06T11:46:09.507Z,8.98
2019-01-06T11:48:55.812Z,9.00
2019-01-06T11:51:28.911Z,9.88
2019-01-06T11:54:15.174Z,9.28
2019-01-06T11:56:54.032Z,12.03
2019-01-06T11:59:26.751Z,11.80
2019-01-06T12:01:59.936Z,7.95
2019-01-06T12:04:32.895Z,8.03
2019-01-06T12:07:19.220Z,7.53
2019-01-06T12:10:05.855Z,8.13
2019-01-06T12:12:42.183Z,7.92
2019-01-06T12:15:12.219Z,9.95
2019-01-06T12:17:58.790Z,8.10
2019-01-06T12:20:37.372Z,9.18
2019-01-06T12:23:07.656Z,10.25
2019-01-06T12:25:54.500Z,11.00
2019-01-06T12:28:24.807Z,10.85
2019-01-06T12:31:00.640Z,10.58
2019-01-06T12:33:47.266Z,13.65
2019-01-06T12:36:33.707Z,14.85
2019-01-06T12:39:03.763Z,17.32
2019-01-06T12:41:39.536Z,13.45
2019-01-06T12:44:26.998Z,11.65
2019-01-06T12:47:13.557Z,11.08
2019-01-06T12:50:00.374Z,12.15
2019-01-06T12:52:30.444Z,13.65
2019-01-06T12:55:00.560Z,16.45
2019-01-06T12:57:44.276Z,14.90
2019-01-06T13:00:29.787Z,17.30
2019-01-06T13:03:16.185Z,14.95
2019-01-06T13:05:46.291Z,15.30
2019-01-06T13:08:32.710Z,17.30
2019-01-06T13:11:19.033Z,15.90
2019-01-06T13:13:52.070Z,20.23
2019-01-06T13:16:27.791Z,18.23
2019-01-06T13:19:09.796Z,20.65
2019-01-06T13:21:52.051Z,19.15
2019-01-06T13:24:24.811Z,22.22
2019-01-06T13:27:11.177Z,21.50
2019-01-06T13:29:41.235Z,17.30
2019-01-06T13:32:16.916Z,19.70
2019-01-06T13:34:52.724Z,21.25
2019-01-06T13:37:39.299Z,20.60
2019-01-06T13:40:09.484Z,20.95
2019-01-06T13:42:48.495Z,19.90
2019-01-06T13:45:18.598Z,23.18
2019-01-06T13:48:05.940Z,22.50
2019-01-06T13:50:36.248Z,24.43
2019-01-06T13:53:18.306Z,22.13
2019-01-06T13:55:48.363Z,21.07
2019-01-06T13:58:18.415Z,19.50
2019-01-06T14:01:05.026Z,20.37
2019-01-06T14:03:43.830Z,22.05
2019-01-06T14:06:26.040Z,23.15
2019-01-06T14:08:59.055Z,19.42
2019-01-06T14:11:32.269Z,21.10
2019-01-06T14:14:11.332Z,23.35
2019-01-06T14:16:41.399Z,24.02
2019-01-06T14:19:27.694Z,20.72
2019-01-06T14:22:15.868Z,23.35
2019-01-06T14:25:02.061Z,25.15
2019-01-06T14:27:34.887Z,23.15
2019-01-06T14:30:21.331Z,23.57
2019-01-06T14:32:51.774Z,24.70
2019-01-06T14:35:37.060Z,31.77
2019-01-06T14:38:16.138Z,25.23
2019-01-06T14:41:02.215Z,22.75
2019-01-06T14:43:47.584Z,22.42
2019-01-06T14:46:23.451Z,26.70
2019-01-06T14:48:53.801Z,21.02
2019-01-06T14:51:23.852Z,25.57
2019-01-06T14:54:10.633Z,22.80
2019-01-06T14:56:56.859Z,20.85
2019-01-06T14:59:43.391Z,18.80
2019-01-06T15:02:31.994Z,23.90
2019-01-06T15:05:02.059Z,20.85
2019-01-06T15:07:48.916Z,23.40
2019-01-06T15:10:21.691Z,24.55
2019-01-06T15:12:51.748Z,24.00
2019-01-06T15:15:21.818Z,28.85
2019-01-06T15:18:08.071Z,26.05
2019-01-06T15:20:54.455Z,34.23
2019-01-06T15:23:33.707Z,33.67
2019-01-06T15:26:06.682Z,33.90
2019-01-06T15:28:53.402Z,29.42
2019-01-06T15:31:26.299Z,31.90
2019-01-06T15:34:08.166Z,41.33
2019-01-06T15:36:54.412Z,41.58
2019-01-06T15:39:39.547Z,38.23
2019-01-06T15:42:15.805Z,36.03
2019-01-06T15:44:48.586Z,37.28
2019-01-06T15:47:35.474Z,46.00
2019-01-06T15:50:12.251Z,35.23
2019-01-06T15:52:58.567Z,40.50
2019-01-06T15:55:44.862Z,37.65
2019-01-06T15:58:31.520Z,32.53
2019-01-06T16:01:01.621Z,39.13
2019-01-06T16:03:43.928Z,39.88
2019-01-06T16:06:25.772Z,39.55
2019-01-06T16:09:12.243Z,40.80
2019-01-06T16:11:45.276Z,33.65
2019-01-06T16:14:30.274Z,36.50
2019-01-06T16:17:06.224Z,38.00
2019-01-06T16:19:38.924Z,39.98
2019-01-06T16:22:26.988Z,36.60
2019-01-06T16:25:02.824Z,40.33
2019-01-06T16:27:49.654Z,36.35
2019-01-06T16:30:35.848Z,34.58
2019-01-06T16:33:12.121Z,37.90
2019-01-06T16:35:42.216Z,43.33
2019-01-06T16:38:27.668Z,41.53
2019-01-06T16:40:58.189Z,49.60
2019-01-06T16:43:30.948Z,45.20
2019-01-06T16:46:06.686Z,39.78
2019-01-06T16:48:45.999Z,42.90
2019-01-06T16:51:18.981Z,45.10
2019-01-06T16:54:05.868Z,41.83
2019-01-06T16:56:35.944Z,42.62
2019-01-06T16:59:05.984Z,42.08
2019-01-06T17:01:52.310Z,42.80
2019-01-06T17:04:25.356Z,40.17
2019-01-06T17:06:58.149Z,44.77
2019-01-06T17:09:33.841Z,40.63
2019-01-06T17:12:03.945Z,32.53
2019-01-06T17:14:50.214Z,32.58
2019-01-06T17:17:23.271Z,40.05
2019-01-06T17:19:59.127Z,38.60
2019-01-06T17:22:41.078Z,36.05
2019-01-06T17:25:17.359Z,40.67
2019-01-06T17:28:04.298Z,37.15
2019-01-06T17:30:50.771Z,37.20
2019-01-06T17:33:27.295Z,36.85
2019-01-06T17:35:57.391Z,39.38
2019-01-06T17:38:33.175Z,31.37
2019-01-06T17:41:15.262Z,33.73
2019-01-06T17:43:48.091Z,37.33
2019-01-06T17:46:36.268Z,36.10
2019-01-06T17:49:06.339Z,34.20
2019-01-06T17:51:52.595Z,36.30
2019-01-06T17:54:22.726Z,40.43
2019-01-06T17:56:58.879Z,32.33
2019-01-06T17:59:34.592Z,34.48
2019-01-06T18:02:26.195Z,36.13
2019-01-06T18:05:12.365Z,36.35
2019-01-06T18:07:42.717Z,32.45
2019-01-06T18:10:21.926Z,31.95
2019-01-06T18:12:55.587Z,31.85
2019-01-06T18:15:41.796Z,35.52
2019-01-06T18:18:30.299Z,38.88
2019-01-06T18:21:15.690Z,33.35
2019-01-06T18:23:57.455Z,37.42
2019-01-06T18:26:43.996Z,44.65
2019-01-06T18:29:19.855Z,44.98
2019-01-06T18:31:55.647Z,37.33
2019-01-06T18:34:37.952Z,49.53
2019-01-06T18:37:14.151Z,38.55
2019-01-06T18:39:44.216Z,48.55
2019-01-06T18:42:14.508Z,41.35
2019-01-06T18:44:47.757Z,44.00
2019-01-06T18:47:17.819Z,60.30
2019-01-06T18:49:56.329Z,55.92
2019-01-06T18:52:26.394Z,58.00
2019-01-06T18:54:56.443Z,56.45
2019-01-06T18:57:32.636Z,50.73
2019-01-06T19:00:08.777Z,51.68
2019-01-06T19:02:48.030Z,54.60
2019-01-06T19:05:34.917Z,54.55
2019-01-06T19:08:23.152Z,60.78
2019-01-06T19:11:08.452Z,56.15
2019-01-06T19:13:48.715Z,55.55
2019-01-06T19:16:18.762Z,60.43
2019-01-06T19:19:05.083Z,59.65
2019-01-06T19:21:41.167Z,56.73
2019-01-06T19:24:23.387Z,68.55
2019-01-06T19:26:56.429Z,59.05
2019-01-06T19:29:29.437Z,56.90
2019-01-06T19:31:59.487Z,54.05
2019-01-06T19:34:32.399Z,62.30
2019-01-06T19:37:02.478Z,65.57
2019-01-06T19:39:48.747Z,67.30
2019-01-06T19:42:21.847Z,59.33
2019-01-06T19:45:23.339Z,60.35
2019-01-06T19:48:10.038Z,59.13
2019-01-06T19:50:48.873Z,58.63
2019-01-06T19:53:22.046Z,56.48
2019-01-06T19:55:57.966Z,60.55
2019-01-06T19:58:33.879Z,59.65
2019-01-06T20:01:06.731Z,63.50
2019-01-06T20:03:52.972Z,55.35
2019-01-06T20:06:38.553Z,55.70
2019-01-06T20:09:25.555Z,54.33
2019-01-06T20:12:11.757Z,54.20
2019-01-06T20:14:47.727Z,55.70
2019-01-06T20:17:26.622Z,53.40
2019-01-06T20:19:56.688Z,56.33
2019-01-06T20:22:26.798Z,52.60
2019-01-06T20:25:05.854Z,58.48
2019-01-06T20:27:52.120Z,49.30
2019-01-06T20:30:25.229Z,50.60
2019-01-06T20:33:01.325Z,76.45
2019-01-06T20:35:31.682Z,51.00
2019-01-06T20:38:18.273Z,52.30
2019-01-06T20:41:00.276Z,51.85
2019-01-06T20:43:40.049Z,55.95
2019-01-06T20:46:26.549Z,48.92
2019-01-06T20:48:59.487Z,49.98
2019-01-06T20:51:35.477Z,48.65
2019-01-06T20:54:05.527Z,43.50
2019-01-06T20:56:44.313Z,48.23
2019-01-06T20:59:31.206Z,44.13
2019-01-06T21:02:17.914Z,46.58
2019-01-06T21:04:53.315Z,39.35
2019-01-06T21:07:32.028Z,41.23
2019-01-06T21:10:11.370Z,41.70
2019-01-06T21:12:53.241Z,39.25
2019-01-06T21:15:23.284Z,38.88
2019-01-06T21:18:11.855Z,43.95
2019-01-06T21:20:54.071Z,43.63
2019-01-06T21:23:40.698Z,45.17
2019-01-06T21:26:10.970Z,46.45
2019-01-06T21:28:49.997Z,49.35
2019-01-06T21:31:35.189Z,53.15
2019-01-06T21:34:11.032Z,47.98
2019-01-06T21:36:46.809Z,52.40
2019-01-06T21:39:16.853Z,54.20
2019-01-06T21:41:59.223Z,52.20
2019-01-06T21:44:45.470Z,59.35
2019-01-06T21:47:15.534Z,52.73
2019-01-06T21:49:45.840Z,50.05
2019-01-06T21:52:28.993Z,53.10
2019-01-06T21:54:59.034Z,54.40
2019-01-06T21:57:29.078Z,50.23
2019-01-06T22:00:16.834Z,48.65
2019-01-06T22:02:47.358Z,44.93
2019-01-06T22:05:20.421Z,47.10
2019-01-06T22:07:53.123Z,42.83
2019-01-06T22:10:39.413Z,45.23
2019-01-06T22:13:26.326Z,46.40
2019-01-06T22:16:08.192Z,48.58
2019-01-06T22:18:41.010Z,48.48
2019-01-06T22:21:27.643Z,54.27
2019-01-06T22:24:14.243Z,51.35
2019-01-06T22:26:46.965Z,51.37
2019-01-06T22:29:36.840Z,50.08
2019-01-06T22:32:12.874Z,50.70
2019-01-06T22:34:59.233Z,60.15
2019-01-06T22:37:41.454Z,54.75
2019-01-06T22:40:11.722Z,55.73
2019-01-06T22:42:41.794Z,53.25
2019-01-06T22:45:17.629Z,61.77
2019-01-06T22:48:04.330Z,54.75
2019-01-06T22:50:43.645Z,62.88
2019-01-06T22:53:30.222Z,60.52
2019-01-06T22:56:16.823Z,65.40
2019-01-06T22:59:06.558Z,69.15
2019-01-06T23:01:39.306Z,78.75
2019-01-06T23:04:09.349Z,66.20
2019-01-06T23:06:51.758Z,73.35
2019-01-06T23:09:27.548Z,70.70
2019-01-06T23:12:09.476Z,70.15
2019-01-06T23:14:42.434Z,65.35
2019-01-06T23:17:12.477Z,73.10
2019-01-06T23:19:42.770Z,64.85
2019-01-06T23:22:12.845Z,63.50
2019-01-06T23:24:59.268Z,60.30
2019-01-06T23:27:47.694Z,54.45
2019-01-06T23:30:17.759Z,61.55
2019-01-06T23:32:50.642Z,59.20
2019-01-06T23:35:35.929Z,62.55
2019-01-06T23:38:06.231Z,63.13
2019-01-06T23:40:50.490Z,61.05
2019-01-06T23:43:32.745Z,59.13
2019-01-06T23:46:05.857Z,62.62
2019-01-06T23:48:41.834Z,54.25
2019-01-06T23:51:23.892Z,60.25
2019-01-06T23:53:53.930Z,56.80
2019-01-06T23:56:33.153Z,64.27
2019-01-06T23:59:06.617Z,64.58
